Impacts METAR Board INFO
IDs:

KJFK - New York/Kennedy Int, NY, US

Updated at: 1314 UTC 19 Jan 2018
Potential Impact None Slight Moderate High
Time19/01Z 19/02Z 19/03Z 19/04Z 19/05Z 19/06Z 19/07Z 19/08Z 19/09Z 19/10Z 19/11Z 19/12Z 19/13Z
VIS10 10 10 10 10 10 10 10 10 10 10 10 10
CIG-- -- -- -- -- -- -- -- -- -- -- -- 220
CoverCLRCLRFEWFEWCLRCLRCLRCLRCLRFEWSCTSCTBKN
FltCatVFRVFRVFRVFRVFRVFRVFRVFRVFRVFRVFRVFRVFR
WX--------------------------
WDir320320330320300290280280270250240250240
WSpd12 12 13 12 8 10 7 7 9 7 5 8 10
WGst-- -- -- -- -- -- -- -- -- -- -- -- --
Raw hourly METARs
KJFK 190051Z 32012KT 10SM CLR M02/M11 A3005 RMK AO2 SLP175 T10171106 $
KJFK 190151Z 32012KT 10SM CLR M02/M11 A3008 RMK AO2 SLP185 T10221106 $
KJFK 190251Z 33013KT 10SM FEW250 M02/M11 A3010 RMK AO2 SLP191 T10221106 52021 $
KJFK 190351Z 32012KT 10SM FEW250 M03/M11 A3009 RMK AO2 SLP188 T10281106 $
KJFK 190451Z 30008KT 10SM CLR M03/M11 A3009 RMK AO2 SLP187 T10331106 400111072 $
KJFK 190551Z 29010KT 10SM CLR M03/M11 A3006 RMK AO2 SLP179 T10331106 11011 21039 58011 $
KJFK 190651Z 28007KT 10SM CLR M04/M11 A3006 RMK AO2 SLP178 T10391106 $
KJFK 190751Z 28007KT 10SM CLR M04/M11 A3006 RMK AO2 SLP179 T10391106 $
KJFK 190851Z 27009KT 10SM CLR M04/M10 A3008 RMK AO2 SLP184 T10391100 53005 $
KJFK 190951Z 25007KT 10SM FEW050 M04/M09 A3008 RMK AO2 SLP184 T10391094 $
KJFK 191051Z 24005KT 10SM SCT250 M05/M09 A3008 RMK AO2 SLP186 T10501089 $
KJFK 191151Z 25008KT 10SM SCT240 M03/M09 A3008 RMK AO2 SLP187 T10331089 11033 21056 53002 $
KJFK 191251Z 24010KT 10SM BKN220 M03/M08 A3008 RMK AO2 SLP186 T10281078 $